sensor_id;sensor_type;location;lat;lon;timestamp;noise_LAeq;noise_LA_min;noise_LA_max;noise_LA01;noise_LA95
72276;Laerm;61204;49.980;8.358;2023-05-10T00:01:48;52.25;45.14;74.63;;
72276;Laerm;61204;49.980;8.358;2023-05-10T00:04:14;49.25;43.14;76.71;;
72276;Laerm;61204;49.980;8.358;2023-05-10T00:06:39;48.24;42.38;70.77;;
72276;Laerm;61204;49.980;8.358;2023-05-10T00:09:05;49.45;42.95;64.29;;
72276;Laerm;61204;49.980;8.358;2023-05-10T00:11:30;49.16;42.88;64.14;;
72276;Laerm;61204;49.980;8.358;2023-05-10T00:13:56;49.61;42.95;78.69;;
72276;Laerm;61204;49.980;8.358;2023-05-10T00:16:24;49.06;43.25;66.70;;
72276;Laerm;61204;49.980;8.358;2023-05-10T00:18:49;50.00;45.05;66.20;;
72276;Laerm;61204;49.980;8.358;2023-05-10T00:21:15;51.30;45.60;70.41;;
72276;Laerm;61204;49.980;8.358;2023-05-10T00:23:40;51.93;44.52;68.16;;
72276;Laerm;61204;49.980;8.358;2023-05-10T00:26:05;49.12;43.04;72.39;;
72276;Laerm;61204;49.980;8.358;2023-05-10T00:28:31;50.54;41.92;65.16;;
72276;Laerm;61204;49.980;8.358;2023-05-10T00:30:56;48.55;41.48;63.38;;
72276;Laerm;61204;49.980;8.358;2023-05-10T00:33:22;49.30;43.53;58.25;;
72276;Laerm;61204;49.980;8.358;2023-05-10T00:35:49;48.25;42.24;66.95;;
72276;Laerm;61204;49.980;8.358;2023-05-10T00:38:15;47.95;42.14;60.89;;
72276;Laerm;61204;49.980;8.358;2023-05-10T00:40:40;49.40;42.60;62.31;;
72276;Laerm;61204;49.980;8.358;2023-05-10T00:43:08;49.18;42.71;57.88;;
72276;Laerm;61204;49.980;8.358;2023-05-10T00:45:35;50.81;42.53;64.32;;
72276;Laerm;61204;49.980;8.358;2023-05-10T00:48:02;48.59;40.85;65.91;;
72276;Laerm;61204;49.980;8.358;2023-05-10T00:50:30;49.89;44.61;63.16;;
72276;Laerm;61204;49.980;8.358;2023-05-10T00:53:02;49.23;42.83;60.63;;
72276;Laerm;61204;49.980;8.358;2023-05-10T00:55:28;48.40;39.37;60.21;;
72276;Laerm;61204;49.980;8.358;2023-05-10T00:57:53;51.62;43.15;68.86;;
72276;Laerm;61204;49.980;8.358;2023-05-10T01:00:22;51.96;42.60;64.37;;
72276;Laerm;61204;49.980;8.358;2023-05-10T01:02:48;51.41;44.33;66.07;;
72276;Laerm;61204;49.980;8.358;2023-05-10T01:05:14;48.63;42.21;60.38;;
72276;Laerm;61204;49.980;8.358;2023-05-10T01:07:40;48.13;39.99;60.28;;
72276;Laerm;61204;49.980;8.358;2023-05-10T01:10:07;48.22;42.24;61.76;;
72276;Laerm;61204;49.980;8.358;2023-05-10T01:12:38;48.50;43.21;58.38;;
72276;Laerm;61204;49.980;8.358;2023-05-10T01:15:08;48.85;44.00;61.43;;
72276;Laerm;61204;49.980;8.358;2023-05-10T01:17:39;48.53;41.82;58.62;;
72276;Laerm;61204;49.980;8.358;2023-05-10T01:20:10;48.79;42.35;60.05;;
72276;Laerm;61204;49.980;8.358;2023-05-10T01:26:17;48.23;42.02;56.23;;
72276;Laerm;61204;49.980;8.358;2023-05-10T01:35:04;46.84;40.98;55.38;;
72276;Laerm;61204;49.980;8.358;2023-05-10T01:37:44;48.62;40.18;63.34;;
72276;Laerm;61204;49.980;8.358;2023-05-10T01:40:38;45.12;39.29;52.54;;
72276;Laerm;61204;49.980;8.358;2023-05-10T01:43:16;49.84;41.84;62.68;;
72276;Laerm;61204;49.980;8.358;2023-05-10T01:46:01;47.27;40.85;52.71;;
72276;Laerm;61204;49.980;8.358;2023-05-10T01:48:30;46.98;40.24;53.18;;
72276;Laerm;61204;49.980;8.358;2023-05-10T01:50:57;47.62;42.42;54.11;;
72276;Laerm;61204;49.980;8.358;2023-05-10T01:53:23;46.55;40.92;55.73;;
72276;Laerm;61204;49.980;8.358;2023-05-10T01:55:53;48.13;43.15;54.44;;
72276;Laerm;61204;49.980;8.358;2023-05-10T01:58:27;48.84;42.84;56.29;;
72276;Laerm;61204;49.980;8.358;2023-05-10T02:00:54;47.00;41.53;55.25;;
72276;Laerm;61204;49.980;8.358;2023-05-10T02:03:23;48.38;42.70;60.71;;
72276;Laerm;61204;49.980;8.358;2023-05-10T02:05:52;49.55;44.12;55.65;;
72276;Laerm;61204;49.980;8.358;2023-05-10T02:08:21;49.69;44.90;56.29;;
72276;Laerm;61204;49.980;8.358;2023-05-10T02:10:50;49.03;41.78;54.58;;
72276;Laerm;61204;49.980;8.358;2023-05-10T02:13:18;48.81;43.25;55.45;;
72276;Laerm;61204;49.980;8.358;2023-05-10T02:15:48;50.52;44.61;59.66;;
72276;Laerm;61204;49.980;8.358;2023-05-10T02:18:18;49.14;42.87;55.06;;
72276;Laerm;61204;49.980;8.358;2023-05-10T02:20:46;54.24;44.65;68.35;;
72276;Laerm;61204;49.980;8.358;2023-05-10T02:23:13;50.07;45.43;55.61;;
72276;Laerm;61204;49.980;8.358;2023-05-10T02:25:41;51.25;45.38;58.99;;
72276;Laerm;61204;49.980;8.358;2023-05-10T02:28:10;48.46;43.14;55.41;;
72276;Laerm;61204;49.980;8.358;2023-05-10T02:30:39;47.97;43.55;55.06;;
72276;Laerm;61204;49.980;8.358;2023-05-10T02:33:06;48.53;44.05;59.19;;
72276;Laerm;61204;49.980;8.358;2023-05-10T02:35:33;48.69;43.73;60.67;;
72276;Laerm;61204;49.980;8.358;2023-05-10T02:38:03;49.96;42.88;59.88;;
72276;Laerm;61204;49.980;8.358;2023-05-10T02:40:33;53.22;47.06;68.97;;
72276;Laerm;61204;49.980;8.358;2023-05-10T02:43:01;50.73;44.34;64.23;;
72276;Laerm;61204;49.980;8.358;2023-05-10T02:45:31;52.35;44.70;68.62;;
72276;Laerm;61204;49.980;8.358;2023-05-10T02:47:58;57.46;46.42;76.84;;
72276;Laerm;61204;49.980;8.358;2023-05-10T02:50:28;59.17;46.20;77.24;;
72276;Laerm;61204;49.980;8.358;2023-05-10T02:53:01;61.03;44.75;78.11;;
72276;Laerm;61204;49.980;8.358;2023-05-10T02:55:35;58.79;46.04;77.40;;
72276;Laerm;61204;49.980;8.358;2023-05-10T02:58:02;58.74;46.33;73.36;;
72276;Laerm;61204;49.980;8.358;2023-05-10T03:00:31;58.75;47.01;72.19;;
72276;Laerm;61204;49.980;8.358;2023-05-10T03:02:56;57.99;46.65;71.38;;
72276;Laerm;61204;49.980;8.358;2023-05-10T03:05:22;58.19;47.86;72.35;;
72276;Laerm;61204;49.980;8.358;2023-05-10T03:07:48;58.41;48.29;74.02;;
72276;Laerm;61204;49.980;8.358;2023-05-10T03:10:14;54.95;49.17;67.18;;
72276;Laerm;61204;49.980;8.358;2023-05-10T03:13:18;55.41;48.62;72.14;;
72276;Laerm;61204;49.980;8.358;2023-05-10T03:16:05;55.22;48.28;66.76;;
72276;Laerm;61204;49.980;8.358;2023-05-10T03:18:55;56.24;48.25;72.47;;
72276;Laerm;61204;49.980;8.358;2023-05-10T03:21:25;55.95;49.45;66.97;;
72276;Laerm;61204;49.980;8.358;2023-05-10T03:24:01;54.61;48.47;64.64;;
72276;Laerm;61204;49.980;8.358;2023-05-10T03:26:31;57.80;49.89;71.40;;
72276;Laerm;61204;49.980;8.358;2023-05-10T03:29:00;58.09;50.58;71.25;;
72276;Laerm;61204;49.980;8.358;2023-05-10T03:31:26;57.66;49.87;71.87;;
72276;Laerm;61204;49.980;8.358;2023-05-10T03:33:52;56.25;50.86;64.84;;
72276;Laerm;61204;49.980;8.358;2023-05-10T03:36:19;56.73;50.99;64.20;;
72276;Laerm;61204;49.980;8.358;2023-05-10T03:38:44;56.37;51.64;72.65;;
72276;Laerm;61204;49.980;8.358;2023-05-10T03:41:12;56.15;51.25;61.87;;
72276;Laerm;61204;49.980;8.358;2023-05-10T03:43:40;56.47;51.59;62.57;;
72276;Laerm;61204;49.980;8.358;2023-05-10T03:46:06;57.28;51.90;64.05;;
72276;Laerm;61204;49.980;8.358;2023-05-10T03:48:32;57.29;51.39;70.97;;
72276;Laerm;61204;49.980;8.358;2023-05-10T03:50:58;55.40;51.26;61.85;;
72276;Laerm;61204;49.980;8.358;2023-05-10T03:53:25;56.27;51.43;62.47;;
72276;Laerm;61204;49.980;8.358;2023-05-10T03:55:50;56.41;51.92;64.72;;
72276;Laerm;61204;49.980;8.358;2023-05-10T03:58:16;55.86;50.89;59.90;;
72276;Laerm;61204;49.980;8.358;2023-05-10T04:00:41;55.33;51.06;60.58;;
72276;Laerm;61204;49.980;8.358;2023-05-10T04:03:12;57.40;51.78;81.31;;
72276;Laerm;61204;49.980;8.358;2023-05-10T04:05:37;56.52;52.13;62.17;;
72276;Laerm;61204;49.980;8.358;2023-05-10T04:08:06;56.69;51.40;65.52;;
72276;Laerm;61204;49.980;8.358;2023-05-10T04:10:32;56.81;51.04;71.52;;
72276;Laerm;61204;49.980;8.358;2023-05-10T04:12:57;56.35;51.88;68.59;;
72276;Laerm;61204;49.980;8.358;2023-05-10T04:15:22;56.02;51.46;62.91;;
72276;Laerm;61204;49.980;8.358;2023-05-10T04:17:48;56.52;52.18;64.62;;
72276;Laerm;61204;49.980;8.358;2023-05-10T04:20:14;57.42;52.02;69.45;;
72276;Laerm;61204;49.980;8.358;2023-05-10T04:22:40;57.33;51.24;69.12;;
72276;Laerm;61204;49.980;8.358;2023-05-10T04:25:06;57.05;50.66;66.43;;
72276;Laerm;61204;49.980;8.358;2023-05-10T04:27:32;56.76;51.21;63.46;;
72276;Laerm;61204;49.980;8.358;2023-05-10T04:29:58;56.65;51.39;67.83;;
72276;Laerm;61204;49.980;8.358;2023-05-10T04:32:24;56.68;51.54;68.26;;
72276;Laerm;61204;49.980;8.358;2023-05-10T04:34:49;55.23;51.64;64.66;;
72276;Laerm;61204;49.980;8.358;2023-05-10T04:37:17;54.71;51.14;60.75;;
72276;Laerm;61204;49.980;8.358;2023-05-10T04:39:43;55.24;51.17;62.05;;
72276;Laerm;61204;49.980;8.358;2023-05-10T04:42:08;55.91;51.26;65.82;;
72276;Laerm;61204;49.980;8.358;2023-05-10T04:44:36;56.01;52.12;66.21;;
72276;Laerm;61204;49.980;8.358;2023-05-10T04:47:02;57.39;51.87;68.52;;
72276;Laerm;61204;49.980;8.358;2023-05-10T04:49:29;57.52;52.30;66.38;;
72276;Laerm;61204;49.980;8.358;2023-05-10T04:51:57;56.33;51.78;65.92;;
72276;Laerm;61204;49.980;8.358;2023-05-10T04:54:22;56.11;52.14;68.49;;
72276;Laerm;61204;49.980;8.358;2023-05-10T04:56:48;57.60;51.97;67.97;;
72276;Laerm;61204;49.980;8.358;2023-05-10T04:59:13;56.44;51.81;67.97;;
72276;Laerm;61204;49.980;8.358;2023-05-10T05:01:41;56.45;51.63;72.44;;
72276;Laerm;61204;49.980;8.358;2023-05-10T05:04:09;57.53;52.82;71.40;;
72276;Laerm;61204;49.980;8.358;2023-05-10T05:06:34;55.71;51.26;64.38;;
72276;Laerm;61204;49.980;8.358;2023-05-10T05:08:59;55.65;51.38;69.45;;
72276;Laerm;61204;49.980;8.358;2023-05-10T05:11:25;55.92;50.75;64.98;;
72276;Laerm;61204;49.980;8.358;2023-05-10T05:13:51;55.46;51.07;62.22;;
72276;Laerm;61204;49.980;8.358;2023-05-10T05:16:16;55.03;50.58;63.85;;
72276;Laerm;61204;49.980;8.358;2023-05-10T05:18:42;55.55;50.62;63.75;;
72276;Laerm;61204;49.980;8.358;2023-05-10T05:21:17;54.13;50.12;60.08;;
72276;Laerm;61204;49.980;8.358;2023-05-10T05:23:43;55.80;50.60;63.64;;
72276;Laerm;61204;49.980;8.358;2023-05-10T05:26:09;54.61;50.35;62.67;;
72276;Laerm;61204;49.980;8.358;2023-05-10T05:28:36;56.39;51.84;66.88;;
72276;Laerm;61204;49.980;8.358;2023-05-10T05:31:06;55.80;51.69;63.03;;
72276;Laerm;61204;49.980;8.358;2023-05-10T05:33:33;55.94;51.02;63.42;;
72276;Laerm;61204;49.980;8.358;2023-05-10T05:36:04;55.85;51.66;63.78;;
72276;Laerm;61204;49.980;8.358;2023-05-10T05:38:32;56.17;51.36;64.11;;
72276;Laerm;61204;49.980;8.358;2023-05-10T05:41:00;56.60;51.43;64.39;;
72276;Laerm;61204;49.980;8.358;2023-05-10T05:43:25;56.27;51.04;65.69;;
72276;Laerm;61204;49.980;8.358;2023-05-10T05:45:54;55.97;51.35;63.36;;
72276;Laerm;61204;49.980;8.358;2023-05-10T05:48:20;56.35;50.82;71.20;;
72276;Laerm;61204;49.980;8.358;2023-05-10T05:50:48;55.48;51.41;68.59;;
72276;Laerm;61204;49.980;8.358;2023-05-10T05:53:14;55.15;50.31;68.57;;
72276;Laerm;61204;49.980;8.358;2023-05-10T05:55:39;55.64;51.49;65.81;;
72276;Laerm;61204;49.980;8.358;2023-05-10T05:58:05;55.42;51.79;60.35;;
72276;Laerm;61204;49.980;8.358;2023-05-10T06:00:33;55.88;52.00;61.26;;
72276;Laerm;61204;49.980;8.358;2023-05-10T06:02:59;54.80;50.48;61.58;;
72276;Laerm;61204;49.980;8.358;2023-05-10T06:05:24;54.21;50.96;58.81;;
72276;Laerm;61204;49.980;8.358;2023-05-10T06:07:49;55.37;50.36;68.35;;
72276;Laerm;61204;49.980;8.358;2023-05-10T06:10:15;55.48;51.01;63.75;;
72276;Laerm;61204;49.980;8.358;2023-05-10T06:12:40;55.39;50.99;67.24;;
72276;Laerm;61204;49.980;8.358;2023-05-10T06:15:07;55.40;50.60;64.47;;
72276;Laerm;61204;49.980;8.358;2023-05-10T06:17:35;55.68;51.06;64.26;;
72276;Laerm;61204;49.980;8.358;2023-05-10T06:20:00;56.30;50.34;68.70;;
72276;Laerm;61204;49.980;8.358;2023-05-10T06:22:26;56.18;50.52;68.33;;
72276;Laerm;61204;49.980;8.358;2023-05-10T06:24:51;56.82;49.76;70.04;;
72276;Laerm;61204;49.980;8.358;2023-05-10T06:27:19;56.57;49.49;69.25;;
72276;Laerm;61204;49.980;8.358;2023-05-10T06:29:44;54.90;50.00;62.91;;
72276;Laerm;61204;49.980;8.358;2023-05-10T06:32:10;56.94;50.71;70.24;;
72276;Laerm;61204;49.980;8.358;2023-05-10T06:34:36;56.59;50.79;69.60;;
72276;Laerm;61204;49.980;8.358;2023-05-10T06:37:03;54.97;49.67;65.62;;
72276;Laerm;61204;49.980;8.358;2023-05-10T06:39:29;53.38;48.44;65.16;;
72276;Laerm;61204;49.980;8.358;2023-05-10T06:41:54;53.43;47.93;65.24;;
72276;Laerm;61204;49.980;8.358;2023-05-10T06:44:19;53.27;48.23;62.48;;
72276;Laerm;61204;49.980;8.358;2023-05-10T06:46:45;53.55;48.42;60.43;;
72276;Laerm;61204;49.980;8.358;2023-05-10T06:49:10;53.99;49.97;64.38;;
72276;Laerm;61204;49.980;8.358;2023-05-10T06:51:36;54.19;50.13;63.70;;
72276;Laerm;61204;49.980;8.358;2023-05-10T06:54:01;55.01;49.11;63.68;;
72276;Laerm;61204;49.980;8.358;2023-05-10T06:56:29;54.10;49.92;63.80;;
72276;Laerm;61204;49.980;8.358;2023-05-10T06:58:54;55.46;50.34;63.38;;
72276;Laerm;61204;49.980;8.358;2023-05-10T07:01:20;57.13;51.54;68.39;;
72276;Laerm;61204;49.980;8.358;2023-05-10T07:03:45;55.37;50.01;65.15;;
72276;Laerm;61204;49.980;8.358;2023-05-10T07:06:10;56.70;50.46;64.76;;
72276;Laerm;61204;49.980;8.358;2023-05-10T07:08:36;54.41;50.46;61.32;;
72276;Laerm;61204;49.980;8.358;2023-05-10T07:11:08;53.81;49.11;60.04;;
72276;Laerm;61204;49.980;8.358;2023-05-10T07:13:34;56.85;50.21;70.07;;
72276;Laerm;61204;49.980;8.358;2023-05-10T07:16:00;57.30;50.88;70.15;;
72276;Laerm;61204;49.980;8.358;2023-05-10T07:18:27;55.92;50.69;63.34;;
72276;Laerm;61204;49.980;8.358;2023-05-10T07:20:52;56.89;50.42;66.23;;
72276;Laerm;61204;49.980;8.358;2023-05-10T07:23:19;54.43;49.66;62.90;;
72276;Laerm;61204;49.980;8.358;2023-05-10T07:25:49;54.45;49.27;64.14;;
72276;Laerm;61204;49.980;8.358;2023-05-10T07:28:15;54.74;49.14;66.23;;
72276;Laerm;61204;49.980;8.358;2023-05-10T07:30:42;54.96;49.18;70.18;;
72276;Laerm;61204;49.980;8.358;2023-05-10T07:33:09;54.29;49.08;64.84;;
72276;Laerm;61204;49.980;8.358;2023-05-10T07:35:40;54.68;49.44;67.86;;
72276;Laerm;61204;49.980;8.358;2023-05-10T07:38:06;53.88;47.77;65.23;;
72276;Laerm;61204;49.980;8.358;2023-05-10T07:40:31;55.39;50.05;65.59;;
72276;Laerm;61204;49.980;8.358;2023-05-10T07:42:57;56.06;50.24;64.98;;
72276;Laerm;61204;49.980;8.358;2023-05-10T07:45:23;55.04;49.15;64.55;;
72276;Laerm;61204;49.980;8.358;2023-05-10T07:47:49;53.64;48.54;72.25;;
72276;Laerm;61204;49.980;8.358;2023-05-10T07:50:14;54.50;48.32;62.82;;
72276;Laerm;61204;49.980;8.358;2023-05-10T07:52:40;52.83;47.71;61.66;;
72276;Laerm;61204;49.980;8.358;2023-05-10T07:55:06;54.10;48.38;70.67;;
72276;Laerm;61204;49.980;8.358;2023-05-10T07:57:34;52.68;48.31;62.30;;
72276;Laerm;61204;49.980;8.358;2023-05-10T07:59:59;52.75;48.32;67.14;;
72276;Laerm;61204;49.980;8.358;2023-05-10T08:02:25;53.67;47.61;70.22;;
72276;Laerm;61204;49.980;8.358;2023-05-10T08:04:50;56.92;49.31;72.86;;
72276;Laerm;61204;49.980;8.358;2023-05-10T08:07:16;56.45;49.79;72.15;;
72276;Laerm;61204;49.980;8.358;2023-05-10T08:09:42;54.99;50.00;64.67;;
72276;Laerm;61204;49.980;8.358;2023-05-10T08:12:08;56.40;50.65;67.07;;
72276;Laerm;61204;49.980;8.358;2023-05-10T08:14:33;54.67;49.45;64.27;;
72276;Laerm;61204;49.980;8.358;2023-05-10T08:16:59;56.19;51.10;62.29;;
72276;Laerm;61204;49.980;8.358;2023-05-10T08:19:26;54.51;49.54;64.85;;
72276;Laerm;61204;49.980;8.358;2023-05-10T08:21:52;54.42;49.74;65.62;;
72276;Laerm;61204;49.980;8.358;2023-05-10T08:24:18;54.38;49.60;64.98;;
72276;Laerm;61204;49.980;8.358;2023-05-10T08:26:44;53.52;47.96;61.65;;
72276;Laerm;61204;49.980;8.358;2023-05-10T08:29:09;54.42;50.19;61.93;;
72276;Laerm;61204;49.980;8.358;2023-05-10T08:31:35;54.78;48.85;68.67;;
72276;Laerm;61204;49.980;8.358;2023-05-10T08:34:00;53.11;48.92;61.09;;
72276;Laerm;61204;49.980;8.358;2023-05-10T08:36:26;54.56;47.85;68.29;;
72276;Laerm;61204;49.980;8.358;2023-05-10T08:38:51;53.93;47.12;65.16;;
72276;Laerm;61204;49.980;8.358;2023-05-10T08:41:20;52.87;48.86;59.25;;
72276;Laerm;61204;49.980;8.358;2023-05-10T08:43:46;52.94;48.88;64.20;;
72276;Laerm;61204;49.980;8.358;2023-05-10T08:46:17;53.60;46.57;63.51;;
72276;Laerm;61204;49.980;8.358;2023-05-10T08:48:48;54.77;46.65;72.94;;
72276;Laerm;61204;49.980;8.358;2023-05-10T08:51:25;55.15;47.56;70.64;;
72276;Laerm;61204;49.980;8.358;2023-05-10T08:53:55;56.16;47.54;74.84;;
72276;Laerm;61204;49.980;8.358;2023-05-10T08:56:20;51.62;46.29;64.49;;
72276;Laerm;61204;49.980;8.358;2023-05-10T08:58:47;54.82;45.49;68.57;;
72276;Laerm;61204;49.980;8.358;2023-05-10T09:01:16;51.04;47.36;61.49;;
72276;Laerm;61204;49.980;8.358;2023-05-10T09:03:42;54.09;47.91;67.05;;
72276;Laerm;61204;49.980;8.358;2023-05-10T09:06:08;55.07;48.01;70.30;;
72276;Laerm;61204;49.980;8.358;2023-05-10T09:08:35;60.47;48.27;71.28;;
72276;Laerm;61204;49.980;8.358;2023-05-10T09:11:01;58.74;51.22;81.08;;
72276;Laerm;61204;49.980;8.358;2023-05-10T09:13:28;58.87;49.63;72.62;;
72276;Laerm;61204;49.980;8.358;2023-05-10T09:15:55;54.39;49.43;67.68;;
72276;Laerm;61204;49.980;8.358;2023-05-10T09:18:20;62.54;52.35;82.21;;
72276;Laerm;61204;49.980;8.358;2023-05-10T09:20:46;53.82;49.10;75.68;;
72276;Laerm;61204;49.980;8.358;2023-05-10T09:23:11;55.04;50.06;63.93;;
72276;Laerm;61204;49.980;8.358;2023-05-10T09:25:41;60.16;48.95;78.75;;
72276;Laerm;61204;49.980;8.358;2023-05-10T09:28:11;56.41;46.50;79.31;;
72276;Laerm;61204;49.980;8.358;2023-05-10T09:30:37;53.01;48.33;66.57;;
72276;Laerm;61204;49.980;8.358;2023-05-10T09:33:03;54.96;48.77;70.30;;
72276;Laerm;61204;49.980;8.358;2023-05-10T09:35:31;56.32;47.74;69.36;;
72276;Laerm;61204;49.980;8.358;2023-05-10T09:38:02;54.90;48.60;69.55;;
72276;Laerm;61204;49.980;8.358;2023-05-10T09:40:29;54.56;47.73;67.32;;
72276;Laerm;61204;49.980;8.358;2023-05-10T09:43:03;53.79;48.17;63.85;;
72276;Laerm;61204;49.980;8.358;2023-05-10T09:45:31;54.67;48.10;64.35;;
72276;Laerm;61204;49.980;8.358;2023-05-10T09:47:58;53.47;46.73;67.60;;
72276;Laerm;61204;49.980;8.358;2023-05-10T09:50:25;54.16;48.25;67.19;;
72276;Laerm;61204;49.980;8.358;2023-05-10T09:52:57;53.20;47.37;62.63;;
72276;Laerm;61204;49.980;8.358;2023-05-10T09:58:04;54.35;47.51;64.83;;
72276;Laerm;61204;49.980;8.358;2023-05-10T10:00:42;56.55;46.89;78.20;;
72276;Laerm;61204;49.980;8.358;2023-05-10T10:03:17;53.60;46.63;68.00;;
72276;Laerm;61204;49.980;8.358;2023-05-10T10:05:44;63.50;45.89;78.96;;
72276;Laerm;61204;49.980;8.358;2023-05-10T10:08:13;51.25;43.96;64.41;;
72276;Laerm;61204;49.980;8.358;2023-05-10T10:10:40;51.05;45.07;64.61;;
72276;Laerm;61204;49.980;8.358;2023-05-10T10:13:07;54.12;44.73;64.15;;
72276;Laerm;61204;49.980;8.358;2023-05-10T10:15:34;53.13;44.52;65.32;;
72276;Laerm;61204;49.980;8.358;2023-05-10T10:18:03;53.97;45.44;73.31;;
72276;Laerm;61204;49.980;8.358;2023-05-10T10:20:29;53.20;44.95;69.18;;
72276;Laerm;61204;49.980;8.358;2023-05-10T10:22:55;54.27;46.11;70.56;;
72276;Laerm;61204;49.980;8.358;2023-05-10T10:25:21;53.20;46.07;72.12;;
72276;Laerm;61204;49.980;8.358;2023-05-10T10:30:43;53.82;47.67;64.37;;
72276;Laerm;61204;49.980;8.358;2023-05-10T10:33:40;53.69;47.84;67.87;;
72276;Laerm;61204;49.980;8.358;2023-05-10T10:36:13;52.59;47.97;66.89;;
72276;Laerm;61204;49.980;8.358;2023-05-10T10:41:35;57.22;51.69;72.22;;
72276;Laerm;61204;49.980;8.358;2023-05-10T10:55:17;58.86;51.24;72.49;;
72276;Laerm;61204;49.980;8.358;2023-05-10T10:57:49;60.02;52.28;78.17;;
72276;Laerm;61204;49.980;8.358;2023-05-10T11:00:33;60.60;52.17;78.71;;
72276;Laerm;61204;49.980;8.358;2023-05-10T11:03:12;59.98;51.01;76.96;;
72276;Laerm;61204;49.980;8.358;2023-05-10T11:05:57;58.56;49.03;71.38;;
72276;Laerm;61204;49.980;8.358;2023-05-10T11:08:32;58.89;52.89;74.91;;
72276;Laerm;61204;49.980;8.358;2023-05-10T11:13:46;56.80;50.32;68.98;;
72276;Laerm;61204;49.980;8.358;2023-05-10T11:16:25;55.81;51.48;64.52;;
72276;Laerm;61204;49.980;8.358;2023-05-10T11:19:13;54.88;50.11;61.05;;
72276;Laerm;61204;49.980;8.358;2023-05-10T11:24:31;53.32;48.40;62.43;;
72276;Laerm;61204;49.980;8.358;2023-05-10T11:26:57;54.53;49.32;64.16;;
72276;Laerm;61204;49.980;8.358;2023-05-10T11:29:22;54.60;50.00;64.06;;
72276;Laerm;61204;49.980;8.358;2023-05-10T11:31:50;54.11;48.82;63.12;;
72276;Laerm;61204;49.980;8.358;2023-05-10T11:34:29;55.96;50.81;63.53;;
72276;Laerm;61204;49.980;8.358;2023-05-10T11:37:01;55.21;48.98;72.18;;
72276;Laerm;61204;49.980;8.358;2023-05-10T11:39:28;55.35;48.54;66.36;;
72276;Laerm;61204;49.980;8.358;2023-05-10T11:41:55;53.39;48.09;64.22;;
72276;Laerm;61204;49.980;8.358;2023-05-10T11:44:23;52.66;48.07;63.76;;
72276;Laerm;61204;49.980;8.358;2023-05-10T11:46:49;55.36;50.54;71.78;;
72276;Laerm;61204;49.980;8.358;2023-05-10T11:49:15;55.74;50.11;66.87;;
72276;Laerm;61204;49.980;8.358;2023-05-10T11:51:40;55.15;50.25;65.38;;
72276;Laerm;61204;49.980;8.358;2023-05-10T11:54:11;55.18;49.46;63.77;;
72276;Laerm;61204;49.980;8.358;2023-05-10T11:56:40;56.84;49.55;75.12;;
72276;Laerm;61204;49.980;8.358;2023-05-10T11:59:05;56.92;49.92;72.85;;
72276;Laerm;61204;49.980;8.358;2023-05-10T12:01:31;54.68;48.56;70.46;;
72276;Laerm;61204;49.980;8.358;2023-05-10T12:03:58;53.14;47.17;69.17;;
72276;Laerm;61204;49.980;8.358;2023-05-10T12:06:31;53.78;47.51;60.95;;
72276;Laerm;61204;49.980;8.358;2023-05-10T12:08:57;54.99;48.03;67.69;;
72276;Laerm;61204;49.980;8.358;2023-05-10T12:11:28;55.66;49.99;69.81;;
72276;Laerm;61204;49.980;8.358;2023-05-10T12:13:55;58.08;51.00;77.61;;
72276;Laerm;61204;49.980;8.358;2023-05-10T12:16:28;57.77;51.47;69.49;;
72276;Laerm;61204;49.980;8.358;2023-05-10T12:18:59;59.54;52.74;74.94;;
72276;Laerm;61204;49.980;8.358;2023-05-10T12:21:26;57.31;51.96;67.60;;
72276;Laerm;61204;49.980;8.358;2023-05-10T12:23:58;57.27;51.51;72.31;;
72276;Laerm;61204;49.980;8.358;2023-05-10T12:26:25;57.35;50.77;72.49;;
72276;Laerm;61204;49.980;8.358;2023-05-10T12:28:54;61.50;50.70;78.48;;
72276;Laerm;61204;49.980;8.358;2023-05-10T12:31:20;59.83;51.19;80.81;;
72276;Laerm;61204;49.980;8.358;2023-05-10T12:33:46;60.29;51.45;78.25;;
72276;Laerm;61204;49.980;8.358;2023-05-10T12:36:16;56.88;51.16;73.35;;
72276;Laerm;61204;49.980;8.358;2023-05-10T12:38:45;55.84;50.48;69.22;;
72276;Laerm;61204;49.980;8.358;2023-05-10T12:41:19;56.35;50.87;68.88;;
72276;Laerm;61204;49.980;8.358;2023-05-10T12:43:46;59.27;52.83;72.84;;
72276;Laerm;61204;49.980;8.358;2023-05-10T12:46:14;57.26;50.38;72.59;;
72276;Laerm;61204;49.980;8.358;2023-05-10T12:48:42;60.71;50.45;80.05;;
72276;Laerm;61204;49.980;8.358;2023-05-10T12:51:10;56.82;49.21;74.99;;
72276;Laerm;61204;49.980;8.358;2023-05-10T12:53:44;55.22;49.27;71.11;;
72276;Laerm;61204;49.980;8.358;2023-05-10T12:56:11;55.75;50.72;62.55;;
72276;Laerm;61204;49.980;8.358;2023-05-10T12:58:36;56.66;50.57;72.37;;
72276;Laerm;61204;49.980;8.358;2023-05-10T13:01:02;55.95;49.50;72.79;;
72276;Laerm;61204;49.980;8.358;2023-05-10T13:03:30;55.25;49.59;66.78;;
72276;Laerm;61204;49.980;8.358;2023-05-10T13:05:55;55.83;50.75;73.58;;
72276;Laerm;61204;49.980;8.358;2023-05-10T13:08:21;54.32;49.71;63.17;;
72276;Laerm;61204;49.980;8.358;2023-05-10T13:10:46;56.43;51.28;66.06;;
72276;Laerm;61204;49.980;8.358;2023-05-10T13:13:12;54.62;49.31;63.57;;
72276;Laerm;61204;49.980;8.358;2023-05-10T13:15:37;55.71;49.71;64.98;;
72276;Laerm;61204;49.980;8.358;2023-05-10T13:18:03;54.40;49.64;63.31;;
72276;Laerm;61204;49.980;8.358;2023-05-10T13:20:28;53.00;48.35;64.05;;
72276;Laerm;61204;49.980;8.358;2023-05-10T13:22:56;53.01;46.96;70.97;;
72276;Laerm;61204;49.980;8.358;2023-05-10T13:25:22;55.61;49.17;74.61;;
72276;Laerm;61204;49.980;8.358;2023-05-10T13:27:50;55.14;49.49;69.42;;
72276;Laerm;61204;49.980;8.358;2023-05-10T13:30:15;54.83;48.36;67.88;;
72276;Laerm;61204;49.980;8.358;2023-05-10T13:32:41;55.60;49.96;65.72;;
72276;Laerm;61204;49.980;8.358;2023-05-10T13:35:10;56.18;50.39;69.45;;
72276;Laerm;61204;49.980;8.358;2023-05-10T13:37:35;53.71;48.52;67.75;;
72276;Laerm;61204;49.980;8.358;2023-05-10T13:40:03;55.00;49.14;67.37;;
72276;Laerm;61204;49.980;8.358;2023-05-10T13:42:29;52.70;47.62;65.74;;
72276;Laerm;61204;49.980;8.358;2023-05-10T13:44:55;54.84;47.22;70.54;;
72276;Laerm;61204;49.980;8.358;2023-05-10T13:47:20;52.74;47.98;67.11;;
72276;Laerm;61204;49.980;8.358;2023-05-10T13:49:47;54.42;48.45;73.40;;
72276;Laerm;61204;49.980;8.358;2023-05-10T13:52:12;53.45;48.35;69.74;;
72276;Laerm;61204;49.980;8.358;2023-05-10T13:54:39;53.16;48.79;63.63;;
72276;Laerm;61204;49.980;8.358;2023-05-10T13:57:07;56.24;49.53;68.97;;
72276;Laerm;61204;49.980;8.358;2023-05-10T13:59:33;54.64;49.52;67.03;;
72276;Laerm;61204;49.980;8.358;2023-05-10T14:01:59;55.27;47.88;68.73;;
72276;Laerm;61204;49.980;8.358;2023-05-10T14:04:28;51.89;45.94;62.93;;
72276;Laerm;61204;49.980;8.358;2023-05-10T14:06:54;53.52;46.75;62.85;;
72276;Laerm;61204;49.980;8.358;2023-05-10T14:09:19;53.10;47.62;62.26;;
72276;Laerm;61204;49.980;8.358;2023-05-10T14:11:48;51.09;45.69;61.48;;
72276;Laerm;61204;49.980;8.358;2023-05-10T14:14:13;52.09;45.53;67.26;;
72276;Laerm;61204;49.980;8.358;2023-05-10T14:16:44;56.06;47.73;71.07;;
72276;Laerm;61204;49.980;8.358;2023-05-10T14:19:12;52.09;45.52;69.73;;
72276;Laerm;61204;49.980;8.358;2023-05-10T14:21:38;51.76;46.08;62.12;;
72276;Laerm;61204;49.980;8.358;2023-05-10T14:24:04;53.41;46.82;66.18;;